Time;durP1;ratioP1;P1;durP2;ratioP2;P2;SDS_P1;SDS_P2;PMS_P1;PMS_P2;Temp;Humidity;BMP_temperature;BMP_pressure;BME280_temperature;BME280_humidity;BME280_pressure;Samples;Min_cycle;Max_cycle;Signal;HPM_P1;HPM_P2
2022/06/09 00:01:59;;;;;;;3.70;2.25;;;;;;;;;;5089346;28;20157;-85
2022/06/09 00:04:33;;;;;;;5.15;2.30;;;;;;;;;;5108507;28;20106;-88
2022/06/09 00:07:03;;;;;;;3.55;2.30;;;;;;;;;;5110873;28;20100;-88
2022/06/09 00:09:37;;;;;;;5.47;2.95;;;;;;;;;;5110165;28;20495;-84
2022/06/09 00:12:03;;;;;;;5.18;3.08;;;;;;;;;;5092398;28;20020;-85
2022/06/09 00:14:29;;;;;;;5.05;3.30;;;;;;;;;;5110888;28;20105;-87
2022/06/09 00:16:56;;;;;;;4.90;2.92;;;;;;;;;;5092375;28;20486;-85
2022/06/09 00:19:21;;;;;;;9.70;3.13;;;;;;;;;;5112005;28;20023;-85
2022/06/09 00:21:47;;;;;;;4.65;2.55;;;;;;;;;;5093998;28;20027;-86
2022/06/09 00:24:14;;;;;;;6.90;3.95;;;;;;;;;;5110343;28;20494;-85
2022/06/09 00:26:40;;;;;;;6.53;4.18;;;;;;;;;;5109124;28;20062;-85
2022/06/09 00:29:05;;;;;;;8.23;3.97;;;;;;;;;;5111983;28;20872;-85
2022/06/09 00:31:31;;;;;;;7.97;3.42;;;;;;;;;;5093863;28;20479;-85
2022/06/09 00:33:57;;;;;;;7.65;4.32;;;;;;;;;;5093871;28;20016;-85
2022/06/09 00:36:22;;;;;;;9.85;4.45;;;;;;;;;;5093241;28;20077;-85
2022/06/09 00:38:48;;;;;;;6.22;4.00;;;;;;;;;;5111815;28;20102;-85
2022/06/09 00:41:13;;;;;;;5.60;3.97;;;;;;;;;;5092154;28;20115;-85
2022/06/09 00:43:44;;;;;;;5.95;4.00;;;;;;;;;;5093427;28;20533;-85
2022/06/09 00:46:13;;;;;;;9.25;3.83;;;;;;;;;;5109121;28;20533;-85
2022/06/09 00:48:57;;;;;;;6.60;3.90;;;;;;;;;;5111812;28;20057;-85
2022/06/09 00:51:28;;;;;;;5.40;3.58;;;;;;;;;;5091698;28;20494;-85
2022/06/09 00:54:27;;;;;;;4.72;3.50;;;;;;;;;;5093419;28;20387;-85
2022/06/09 00:57:05;;;;;;;6.78;4.38;;;;;;;;;;5106338;28;20032;-85
2022/06/09 00:59:33;;;;;;;4.63;3.45;;;;;;;;;;5111296;28;20055;-86
2022/06/09 01:02:00;;;;;;;6.05;3.13;;;;;;;;;;5093216;28;20126;-85
2022/06/09 01:04:26;;;;;;;4.95;3.30;;;;;;;;;;5093474;28;20410;-85
2022/06/09 01:06:56;;;;;;;3.55;2.80;;;;;;;;;;5091559;28;20118;-87
2022/06/09 01:09:24;;;;;;;5.43;3.10;;;;;;;;;;5109033;28;20016;-87
2022/06/09 01:11:54;;;;;;;4.43;3.20;;;;;;;;;;5110852;28;20422;-86
2022/06/09 01:14:23;;;;;;;5.38;3.08;;;;;;;;;;5105999;28;20051;-86
2022/06/09 01:17:09;;;;;;;5.22;3.28;;;;;;;;;;5111680;28;20059;-85
2022/06/09 01:20:07;;;;;;;5.28;3.22;;;;;;;;;;5089874;28;20024;-85
2022/06/09 01:23:02;;;;;;;8.18;3.38;;;;;;;;;;5109137;28;20028;-85
2022/06/09 01:25:52;;;;;;;8.30;3.72;;;;;;;;;;5074090;28;20031;-86
2022/06/09 01:28:40;;;;;;;;;;;;;;;;;;5110939;28;20086;-85
2022/06/09 01:31:41;;;;;;;5.88;2.95;;;;;;;;;;5082601;28;20310;-86
2022/06/09 01:34:38;;;;;;;5.40;3.30;;;;;;;;;;5093086;28;20032;-85
2022/06/09 01:37:19;;;;;;;4.68;3.53;;;;;;;;;;5089040;28;20044;-86
2022/06/09 01:40:12;;;;;;;4.90;3.40;;;;;;;;;;5110894;28;20027;-86
2022/06/09 01:42:44;;;;;;;5.90;3.42;;;;;;;;;;5106504;28;20036;-85
2022/06/09 01:45:26;;;;;;;4.72;3.38;;;;;;;;;;5091778;28;20447;-85
2022/06/09 01:48:15;;;;;;;4.72;3.38;;;;;;;;;;5089549;28;20085;-85
2022/06/09 01:50:48;;;;;;;6.60;4.05;;;;;;;;;;5099327;28;20038;-86
2022/06/09 01:53:22;;;;;;;6.53;4.10;;;;;;;;;;5082324;28;20030;-86
2022/06/09 01:55:52;;;;;;;6.15;3.35;;;;;;;;;;5110738;28;20023;-85
2022/06/09 01:58:22;;;;;;;8.32;3.38;;;;;;;;;;5091981;28;20024;-85
2022/06/09 02:00:48;;;;;;;;;;;;;;;;;;5082956;28;20119;-85
2022/06/09 02:03:19;;;;;;;5.72;3.97;;;;;;;;;;5081440;28;19915;-85
2022/06/09 02:05:50;;;;;;;6.75;3.95;;;;;;;;;;5106854;28;20057;-85
2022/06/09 02:08:18;;;;;;;6.78;3.40;;;;;;;;;;5088393;28;20031;-85
2022/06/09 02:10:54;;;;;;;6.35;3.83;;;;;;;;;;5090934;28;20079;-85
2022/06/09 02:13:28;;;;;;;7.15;3.25;;;;;;;;;;5095916;28;20065;-85
2022/06/09 02:15:58;;;;;;;6.38;3.60;;;;;;;;;;5110357;28;20053;-85
2022/06/09 02:18:30;;;;;;;9.82;4.03;;;;;;;;;;5112162;28;20479;-85
2022/06/09 02:21:04;;;;;;;5.90;3.40;;;;;;;;;;5094090;28;20027;-86
2022/06/09 02:23:30;;;;;;;6.18;3.63;;;;;;;;;;5113847;28;20031;-85
2022/06/09 02:25:56;;;;;;;5.38;3.42;;;;;;;;;;5113250;28;20398;-85
2022/06/09 02:28:21;;;;;;;4.93;3.60;;;;;;;;;;5095061;28;20031;-85
2022/06/09 02:30:47;;;;;;;7.57;3.53;;;;;;;;;;5094088;28;20031;-87
2022/06/09 02:33:12;;;;;;;4.45;3.67;;;;;;;;;;5096071;28;20023;-85
2022/06/09 02:35:38;;;;;;;6.45;3.33;;;;;;;;;;5114030;28;20047;-85
2022/06/09 02:38:04;;;;;;;6.45;3.60;;;;;;;;;;5096787;27;20030;-85
2022/06/09 02:40:31;;;;;;;5.38;3.75;;;;;;;;;;5114092;28;20368;-85
2022/06/09 02:42:57;;;;;;;6.57;4.28;;;;;;;;;;5094198;28;20031;-85
2022/06/09 02:45:23;;;;;;;9.68;4.18;;;;;;;;;;5114058;28;20035;-85
2022/06/09 02:47:49;;;;;;;4.45;3.47;;;;;;;;;;5095594;28;20030;-87
2022/06/09 02:50:15;;;;;;;6.78;4.68;;;;;;;;;;5112210;28;20035;-86
2022/06/09 02:52:43;;;;;;;7.13;4.78;;;;;;;;;;5110225;28;20102;-87
2022/06/09 02:55:10;;;;;;;5.20;4.05;;;;;;;;;;5113379;28;20028;-88
2022/06/09 02:57:36;;;;;;;7.55;4.65;;;;;;;;;;5113591;28;20034;-86
2022/06/09 03:00:06;;;;;;;7.00;4.40;;;;;;;;;;5093395;28;20535;-85
2022/06/09 03:02:32;;;;;;;6.25;4.13;;;;;;;;;;5113610;28;20031;-86
2022/06/09 03:04:58;;;;;;;5.78;4.60;;;;;;;;;;5113037;28;20026;-86
2022/06/09 03:07:25;;;;;;;7.05;4.53;;;;;;;;;;5094201;28;20391;-87
2022/06/09 03:09:51;;;;;;;7.07;5.20;;;;;;;;;;5113013;28;20108;-86
2022/06/09 03:12:17;;;;;;;7.95;6.15;;;;;;;;;;5113400;27;20031;-85
2022/06/09 03:14:43;;;;;;;6.60;5.15;;;;;;;;;;5094901;28;20031;-86
2022/06/09 03:17:08;;;;;;;8.55;4.70;;;;;;;;;;5111077;28;20109;-85
2022/06/09 03:19:36;;;;;;;6.15;4.35;;;;;;;;;;5108899;28;20028;-89
2022/06/09 03:22:01;;;;;;;6.32;3.90;;;;;;;;;;5092686;28;20065;-86
2022/06/09 03:24:27;;;;;;;6.32;4.32;;;;;;;;;;5092529;28;20027;-86
2022/06/09 03:26:52;;;;;;;5.70;4.03;;;;;;;;;;5095865;28;20051;-87
2022/06/09 03:29:20;;;;;;;4.57;3.45;;;;;;;;;;5095162;28;20058;-87
2022/06/09 03:31:46;;;;;;;4.63;3.58;;;;;;;;;;5113762;28;20419;-88
2022/06/09 03:34:12;;;;;;;5.28;3.75;;;;;;;;;;5110979;28;20400;-89
2022/06/09 03:36:38;;;;;;;6.97;4.15;;;;;;;;;;5109359;28;20064;-88
2022/06/09 03:39:04;;;;;;;5.85;4.38;;;;;;;;;;5111449;28;20059;-86
2022/06/09 03:41:29;;;;;;;6.75;4.22;;;;;;;;;;5111701;28;20028;-88
2022/06/09 03:43:55;;;;;;;6.13;4.50;;;;;;;;;;5095498;28;20024;-86
2022/06/09 03:46:20;;;;;;;8.00;4.03;;;;;;;;;;5112877;28;20024;-86
2022/06/09 03:48:46;;;;;;;5.15;4.28;;;;;;;;;;5112684;28;20492;-87
2022/06/09 03:51:12;;;;;;;6.07;4.55;;;;;;;;;;5110411;28;20076;-87
2022/06/09 03:53:39;;;;;;;8.45;5.28;;;;;;;;;;5094791;28;20413;-88
2022/06/09 03:56:11;;;;;;;7.60;5.82;;;;;;;;;;5112572;28;20023;-89
2022/06/09 03:58:37;;;;;;;7.50;5.32;;;;;;;;;;5111220;28;20417;-87
2022/06/09 04:01:02;;;;;;;5.80;4.78;;;;;;;;;;5110391;28;20058;-87
2022/06/09 04:03:29;;;;;;;9.48;6.90;;;;;;;;;;5111836;28;20019;-88
2022/06/09 04:05:56;;;;;;;7.40;5.95;;;;;;;;;;5113140;28;20413;-89
2022/06/09 04:08:21;;;;;;;7.28;6.22;;;;;;;;;;5093290;28;20042;-87
2022/06/09 04:10:48;;;;;;;8.65;6.05;;;;;;;;;;5112562;28;20032;-88
2022/06/09 04:13:15;;;;;;;6.93;5.47;;;;;;;;;;5112406;28;20019;-88
2022/06/09 04:15:44;;;;;;;9.20;6.97;;;;;;;;;;5094355;28;20020;-87
2022/06/09 04:18:10;;;;;;;9.30;7.37;;;;;;;;;;5093662;28;20023;-87
2022/06/09 04:20:36;;;;;;;8.15;6.72;;;;;;;;;;5093134;28;20031;-87
2022/06/09 04:23:01;;;;;;;11.23;7.35;;;;;;;;;;5107547;28;20027;-88
2022/06/09 04:25:27;;;;;;;10.27;7.38;;;;;;;;;;5109016;28;20028;-86
2022/06/09 04:27:53;;;;;;;9.80;7.07;;;;;;;;;;5111438;28;20039;-87
2022/06/09 04:30:20;;;;;;;9.20;7.47;;;;;;;;;;5112029;28;20035;-87
2022/06/09 04:32:46;;;;;;;10.70;7.80;;;;;;;;;;5109134;28;20395;-87
2022/06/09 04:35:12;;;;;;;8.73;6.93;;;;;;;;;;5094271;28;20047;-88
2022/06/09 04:40:24;;;;;;;9.20;7.35;;;;;;;;;;5111194;28;20486;-87
2022/06/09 04:42:50;;;;;;;10.18;7.10;;;;;;;;;;5111400;28;20031;-88
2022/06/09 04:45:16;;;;;;;13.02;8.80;;;;;;;;;;5091058;28;20055;-88
2022/06/09 04:47:42;;;;;;;17.80;11.60;;;;;;;;;;5093489;28;20023;-88
2022/06/09 04:50:09;;;;;;;14.07;10.35;;;;;;;;;;5091690;28;20044;-88
2022/06/09 04:52:34;;;;;;;13.20;9.02;;;;;;;;;;5109123;28;20030;-88
2022/06/09 04:55:00;;;;;;;13.73;7.97;;;;;;;;;;5111029;28;20099;-87
2022/06/09 04:57:25;;;;;;;23.95;13.63;;;;;;;;;;5094730;28;20023;-88
2022/06/09 04:59:51;;;;;;;21.23;13.48;;;;;;;;;;5093315;28;20031;-88
2022/06/09 05:02:16;;;;;;;12.23;8.73;;;;;;;;;;5083171;28;20032;-92
2022/06/09 05:04:42;;;;;;;21.85;13.60;;;;;;;;;;5085886;28;20080;-90
2022/06/09 05:07:08;;;;;;;11.68;8.55;;;;;;;;;;5089709;28;20513;-91
2022/06/09 05:09:33;;;;;;;22.73;13.90;;;;;;;;;;5102277;28;20052;-90
2022/06/09 05:11:59;;;;;;;20.67;14.00;;;;;;;;;;5085795;28;20432;-86
2022/06/09 05:14:24;;;;;;;30.77;19.65;;;;;;;;;;5108278;28;20507;-87
2022/06/09 05:16:49;;;;;;;18.75;14.10;;;;;;;;;;5108416;28;20072;-86
2022/06/09 05:19:15;;;;;;;20.30;13.65;;;;;;;;;;5101170;28;20024;-85
2022/06/09 05:21:40;;;;;;;15.18;10.45;;;;;;;;;;5082716;28;20487;-84
2022/06/09 05:24:06;;;;;;;16.67;11.88;;;;;;;;;;5086620;28;20539;-84
2022/06/09 05:26:32;;;;;;;16.00;11.52;;;;;;;;;;5098361;28;20028;-84
2022/06/09 05:28:58;;;;;;;16.67;11.00;;;;;;;;;;5097580;28;20502;-84
2022/06/09 05:31:24;;;;;;;12.98;9.32;;;;;;;;;;5106014;28;20081;-87
2022/06/09 05:33:50;;;;;;;11.75;8.57;;;;;;;;;;5109289;28;20024;-87
2022/06/09 05:36:15;;;;;;;9.52;7.18;;;;;;;;;;5108973;28;20079;-86
2022/06/09 05:46:58;;;;;;;8.80;5.38;;;;;;;;;;5100908;28;20030;-86
2022/06/09 05:49:24;;;;;;;9.48;6.03;;;;;;;;;;5083998;28;20028;-85
2022/06/09 05:51:50;;;;;;;10.60;7.50;;;;;;;;;;5110338;28;20028;-89
2022/06/09 05:54:16;;;;;;;11.50;9.02;;;;;;;;;;5106837;28;20027;-87
2022/06/09 05:56:41;;;;;;;11.38;8.98;;;;;;;;;;5086026;28;20028;-88
2022/06/09 05:59:07;;;;;;;12.65;9.07;;;;;;;;;;5084088;28;20103;-86
2022/06/09 06:01:33;;;;;;;13.18;9.95;;;;;;;;;;5099673;28;20079;-89
2022/06/09 06:03:58;;;;;;;10.70;8.88;;;;;;;;;;5093777;28;20023;-88
2022/06/09 06:06:33;;;;;;;10.88;8.20;;;;;;;;;;5115599;28;20027;-84
2022/06/09 06:09:02;;;;;;;11.73;8.27;;;;;;;;;;5113693;28;20104;-88
2022/06/09 06:11:27;;;;;;;9.73;7.20;;;;;;;;;;5116249;27;20031;-87
2022/06/09 06:13:54;;;;;;;7.30;6.47;;;;;;;;;;5091991;28;20394;-91
2022/06/09 06:16:21;;;;;;;9.05;7.20;;;;;;;;;;5115484;28;20027;-88
2022/06/09 06:18:46;;;;;;;9.77;7.55;;;;;;;;;;5105545;28;20026;-88
2022/06/09 06:21:12;;;;;;;6.93;5.93;;;;;;;;;;5107441;28;20024;-89
2022/06/09 06:23:37;;;;;;;6.78;6.07;;;;;;;;;;5106777;28;20476;-87
2022/06/09 06:26:03;;;;;;;6.68;5.88;;;;;;;;;;5091576;28;20024;-87
2022/06/09 06:28:29;;;;;;;8.32;6.68;;;;;;;;;;5108778;28;20032;-90
2022/06/09 06:30:55;;;;;;;7.95;6.60;;;;;;;;;;5107622;28;20024;-88
2022/06/09 06:33:22;;;;;;;7.15;6.20;;;;;;;;;;5108388;28;20027;-89
2022/06/09 06:35:48;;;;;;;8.95;6.45;;;;;;;;;;5090945;28;20200;-90
2022/06/09 06:38:15;;;;;;;7.45;5.70;;;;;;;;;;5099923;28;20024;-90
2022/06/09 06:40:40;;;;;;;7.10;6.30;;;;;;;;;;5112109;28;20057;-89
2022/06/09 06:43:06;;;;;;;7.90;5.72;;;;;;;;;;5109906;28;20055;-87
2022/06/09 06:45:32;;;;;;;10.57;6.47;;;;;;;;;;5112632;28;20046;-88
2022/06/09 06:47:57;;;;;;;5.90;5.30;;;;;;;;;;5100088;28;20028;-88
2022/06/09 06:50:24;;;;;;;6.57;5.53;;;;;;;;;;5111595;28;20034;-89
2022/06/09 06:52:49;;;;;;;6.68;5.85;;;;;;;;;;5107956;28;20076;-85
2022/06/09 06:55:17;;;;;;;7.03;5.18;;;;;;;;;;5084713;28;20023;-83
2022/06/09 06:57:42;;;;;;;5.97;4.90;;;;;;;;;;5083186;28;20028;-87
2022/06/09 07:00:10;;;;;;;6.05;4.93;;;;;;;;;;5096897;28;20119;-87
2022/06/09 07:02:36;;;;;;;27.13;22.58;;;;;;;;;;5100259;28;20476;-86
2022/06/09 07:05:01;;;;;;;13.35;9.93;;;;;;;;;;5098367;28;20028;-86
2022/06/09 07:07:27;;;;;;;6.20;5.60;;;;;;;;;;5112773;28;20470;-84
2022/06/09 07:09:52;;;;;;;7.85;5.60;;;;;;;;;;5095457;28;20527;-87
2022/06/09 07:12:19;;;;;;;11.80;7.35;;;;;;;;;;5108815;28;20028;-85
2022/06/09 07:14:44;;;;;;;8.30;7.20;;;;;;;;;;5109416;28;20023;-87
2022/06/09 07:17:09;;;;;;;9.68;7.43;;;;;;;;;;5094217;28;20039;-86
2022/06/09 07:19:35;;;;;;;8.75;7.40;;;;;;;;;;5116688;27;20020;-86
2022/06/09 07:22:00;;;;;;;9.13;7.40;;;;;;;;;;5103216;28;20027;-87
2022/06/09 07:24:26;;;;;;;10.52;8.00;;;;;;;;;;5088705;28;20067;-86
2022/06/09 07:26:52;;;;;;;11.88;8.93;;;;;;;;;;5089084;28;20027;-86
2022/06/09 07:29:21;;;;;;;11.02;8.68;;;;;;;;;;5106673;28;20046;-86
2022/06/09 07:31:47;;;;;;;13.23;8.25;;;;;;;;;;5084587;28;20042;-86
2022/06/09 07:34:13;;;;;;;11.02;8.30;;;;;;;;;;5083958;28;20047;-85
2022/06/09 07:36:40;;;;;;;10.45;7.75;;;;;;;;;;5104362;28;20127;-86
2022/06/09 07:39:05;;;;;;;11.60;7.90;;;;;;;;;;5089291;28;20023;-85
2022/06/09 07:41:31;;;;;;;7.95;7.10;;;;;;;;;;5108580;28;20016;-85
2022/06/09 07:43:58;;;;;;;9.95;7.90;;;;;;;;;;5088529;28;20023;-84
2022/06/09 07:46:23;;;;;;;8.63;7.20;;;;;;;;;;5111312;28;20700;-84
2022/06/09 07:48:51;;;;;;;10.13;8.73;;;;;;;;;;5104993;28;20023;-85
2022/06/09 07:51:17;;;;;;;9.18;7.10;;;;;;;;;;5097118;28;20027;-85
2022/06/09 07:53:43;;;;;;;8.27;7.40;;;;;;;;;;5103019;28;20036;-84
2022/06/09 07:56:09;;;;;;;8.65;6.22;;;;;;;;;;5106351;28;20078;-85
2022/06/09 07:58:34;;;;;;;8.38;7.07;;;;;;;;;;5102250;28;20028;-85
2022/06/09 08:01:00;;;;;;;11.07;6.50;;;;;;;;;;5103413;28;20051;-84
2022/06/09 08:03:26;;;;;;;9.30;6.80;;;;;;;;;;5114561;28;20020;-84
2022/06/09 08:05:53;;;;;;;7.90;7.10;;;;;;;;;;5109482;28;20440;-85
2022/06/09 08:08:19;;;;;;;9.63;7.03;;;;;;;;;;5113022;28;20525;-85
2022/06/09 08:10:45;;;;;;;8.23;7.40;;;;;;;;;;5096003;28;20023;-85
2022/06/09 08:13:11;;;;;;;7.60;6.75;;;;;;;;;;5101745;28;20127;-86
2022/06/09 08:15:38;;;;;;;8.00;7.20;;;;;;;;;;5093571;28;20023;-87
2022/06/09 08:18:04;;;;;;;9.38;7.03;;;;;;;;;;5079094;28;20098;-85
2022/06/09 08:20:32;;;;;;;7.57;6.78;;;;;;;;;;5106553;28;20055;-85
2022/06/09 08:23:02;;;;;;;7.93;7.10;;;;;;;;;;5107347;28;20428;-87
2022/06/09 08:25:27;;;;;;;10.15;6.95;;;;;;;;;;5094129;28;20449;-85
2022/06/09 08:27:53;;;;;;;8.90;7.03;;;;;;;;;;5096805;28;20028;-85
2022/06/09 08:30:18;;;;;;;9.38;6.93;;;;;;;;;;5082906;28;20444;-86
2022/06/09 08:32:44;;;;;;;12.15;7.82;;;;;;;;;;5115138;28;20489;-83
2022/06/09 08:35:15;;;;;;;8.20;7.28;;;;;;;;;;5092573;28;20047;-84
2022/06/09 08:37:42;;;;;;;8.77;7.35;;;;;;;;;;5105842;28;20036;-85
2022/06/09 08:40:10;;;;;;;9.52;6.70;;;;;;;;;;5090829;28;20156;-87
2022/06/09 08:43:00;;;;;;;8.77;7.10;;;;;;;;;;5093366;28;20034;-84
2022/06/09 08:45:35;;;;;;;7.47;6.60;;;;;;;;;;5094787;28;20028;-86
2022/06/09 08:48:03;;;;;;;8.27;6.22;;;;;;;;;;5089878;28;21361;-86
2022/06/09 08:50:38;;;;;;;9.35;7.22;;;;;;;;;;5095392;28;20031;-82
2022/06/09 08:53:23;;;;;;;9.07;7.32;;;;;;;;;;5088856;28;20073;-82
2022/06/09 08:55:55;;;;;;;7.00;6.30;;;;;;;;;;5105717;28;20091;-87
2022/06/09 08:58:46;;;;;;;7.05;6.35;;;;;;;;;;5103974;28;20047;-87
2022/06/09 09:01:12;;;;;;;8.82;6.25;;;;;;;;;;5106362;28;20027;-86
2022/06/09 09:03:50;;;;;;;7.20;6.47;;;;;;;;;;5104825;28;20387;-89
2022/06/09 09:06:36;;;;;;;6.47;5.60;;;;;;;;;;5100788;28;20026;-85
2022/06/09 09:09:14;;;;;;;9.55;6.38;;;;;;;;;;5113803;27;20383;-85
2022/06/09 09:12:04;;;;;;;6.50;5.93;;;;;;;;;;5108450;28;20054;-86
2022/06/09 09:14:33;;;;;;;7.20;6.18;;;;;;;;;;5095890;28;20027;-85
2022/06/09 09:17:21;;;;;;;8.60;6.53;;;;;;;;;;5079673;28;20055;-87
2022/06/09 09:19:52;;;;;;;9.68;6.75;;;;;;;;;;5095370;28;20035;-88
2022/06/09 09:22:29;;;;;;;9.85;7.60;;;;;;;;;;5100510;28;20023;-87
2022/06/09 09:25:07;;;;;;;7.45;6.70;;;;;;;;;;5107999;28;20026;-86
2022/06/09 09:27:39;;;;;;;8.27;6.43;;;;;;;;;;5092911;28;20034;-83
2022/06/09 09:30:24;;;;;;;8.55;6.10;;;;;;;;;;5099426;28;20020;-85
2022/06/09 09:32:55;;;;;;;7.30;6.15;;;;;;;;;;5104016;28;20038;-84
2022/06/09 09:35:40;;;;;;;7.00;5.63;;;;;;;;;;5080615;28;20540;-87
2022/06/09 09:38:07;;;;;;;7.72;5.90;;;;;;;;;;5098746;28;20032;-83
2022/06/09 09:40:44;;;;;;;7.80;5.78;;;;;;;;;;5102254;28;20031;-85
2022/06/09 09:43:17;;;;;;;10.57;6.25;;;;;;;;;;5104608;28;20036;-87
2022/06/09 09:45:48;;;;;;;9.88;5.63;;;;;;;;;;5114297;28;20471;-87
2022/06/09 09:48:16;;;;;;;7.05;5.47;;;;;;;;;;5105547;28;20043;-87
2022/06/09 09:50:51;;;;;;;8.38;6.07;;;;;;;;;;5114565;28;20020;-88
2022/06/09 09:53:32;;;;;;;10.90;6.63;;;;;;;;;;5113032;28;20126;-86
2022/06/09 09:55:59;;;;;;;6.68;5.80;;;;;;;;;;5093967;28;20028;-87
2022/06/09 09:58:39;;;;;;;6.70;5.53;;;;;;;;;;5096211;28;20436;-88
2022/06/09 10:01:04;;;;;;;7.20;5.90;;;;;;;;;;5095686;28;20463;-88
2022/06/09 10:09:27;;;;;;;8.18;5.15;;;;;;;;;;5113800;28;20062;-87
2022/06/09 10:11:57;;;;;;;6.07;4.55;;;;;;;;;;5082227;28;20538;-87
2022/06/09 10:14:24;;;;;;;5.20;4.18;;;;;;;;;;5110791;28;20019;-86
2022/06/09 10:16:52;;;;;;;4.78;4.13;;;;;;;;;;5095587;28;20467;-86
2022/06/09 10:19:21;;;;;;;4.57;3.40;;;;;;;;;;5077685;28;20084;-88
2022/06/09 10:21:51;;;;;;;5.93;4.38;;;;;;;;;;5091223;28;20027;-87
2022/06/09 10:24:20;;;;;;;10.68;5.00;;;;;;;;;;5091989;28;20121;-87
2022/06/09 10:26:48;;;;;;;;;;;;;;;;;;5090839;28;20030;-88
2022/06/09 10:29:13;;;;;;;8.20;4.72;;;;;;;;;;5083466;28;19911;-87
2022/06/09 10:31:53;;;;;;;7.15;4.43;;;;;;;;;;5103368;28;20024;-88
2022/06/09 10:34:54;;;;;;;7.50;4.07;;;;;;;;;;5090498;28;20419;-87
2022/06/09 10:37:48;;;;;;;4.72;3.78;;;;;;;;;;5073712;28;20080;-86
2022/06/09 10:40:26;;;;;;;8.50;4.40;;;;;;;;;;5079289;28;20028;-86
2022/06/09 10:42:59;;;;;;;10.65;4.40;;;;;;;;;;5093111;28;20039;-88
2022/06/09 10:46:12;;;;;;;8.45;3.97;;;;;;;;;;5077670;28;20025;-88
2022/06/09 10:57:38;;;;;;;3.90;3.50;;;;;;;;;;5090541;28;20063;-88
2022/06/09 11:00:13;;;;;;;6.70;3.40;;;;;;;;;;5070009;28;20495;-88
2022/06/09 11:02:45;;;;;;;5.38;4.05;;;;;;;;;;5095767;28;20020;-87
2022/06/09 11:05:16;;;;;;;4.90;3.50;;;;;;;;;;5083096;28;20024;-86
2022/06/09 11:08:07;;;;;;;3.90;3.10;;;;;;;;;;5083462;28;20019;-87
2022/06/09 11:10:54;;;;;;;4.57;3.40;;;;;;;;;;5080451;28;20541;-87
2022/06/09 11:13:46;;;;;;;4.88;3.08;;;;;;;;;;5076601;28;20031;-89
2022/06/09 11:16:53;;;;;;;4.30;3.10;;;;;;;;;;5081398;28;20016;-88
2022/06/09 11:19:34;;;;;;;5.90;3.38;;;;;;;;;;5094428;28;20511;-89
2022/06/09 11:22:26;;;;;;;5.93;3.53;;;;;;;;;;5099556;28;20027;-87
2022/06/09 11:25:35;;;;;;;6.03;3.05;;;;;;;;;;5083270;28;20020;-89
2022/06/09 11:28:03;;;;;;;5.20;3.40;;;;;;;;;;5043337;28;20053;-87
2022/06/09 11:30:44;;;;;;;4.15;3.20;;;;;;;;;;5078036;28;20537;-85
2022/06/09 11:33:38;;;;;;;4.57;3.33;;;;;;;;;;5080861;28;20028;-89
2022/06/09 11:36:22;;;;;;;5.05;3.40;;;;;;;;;;5082940;28;20085;-88
2022/06/09 11:39:19;;;;;;;8.10;3.75;;;;;;;;;;5099543;28;20039;-88
2022/06/09 11:42:20;;;;;;;4.70;3.15;;;;;;;;;;5086446;28;20515;-92
2022/06/09 11:44:53;;;;;;;4.05;3.25;;;;;;;;;;5091701;28;20111;-90
2022/06/09 11:47:26;;;;;;;4.10;3.30;;;;;;;;;;5083863;28;20434;-89
2022/06/09 11:49:57;;;;;;;4.80;3.30;;;;;;;;;;5091124;28;20024;-88
2022/06/09 11:52:25;;;;;;;5.28;4.07;;;;;;;;;;5085898;28;20028;-87
2022/06/09 11:54:54;;;;;;;4.57;3.00;;;;;;;;;;5096145;28;20053;-89
2022/06/09 11:57:38;;;;;;;6.30;3.50;;;;;;;;;;5083911;28;20569;-88
2022/06/09 12:00:19;;;;;;;7.82;5.15;;;;;;;;;;5098496;28;20039;-90
2022/06/09 12:03:17;;;;;;;8.65;3.60;;;;;;;;;;5105620;28;20103;-88
2022/06/09 12:06:06;;;;;;;4.73;3.77;;;;;;;;;;5113009;28;20384;-90
2022/06/09 12:08:53;;;;;;;5.97;3.40;;;;;;;;;;5105430;28;20054;-87
2022/06/09 12:11:24;;;;;;;4.57;3.80;;;;;;;;;;5089942;28;20024;-89
2022/06/09 12:14:30;;;;;;;8.18;3.38;;;;;;;;;;5088353;28;20020;-87
2022/06/09 12:16:58;;;;;;;3.88;2.90;;;;;;;;;;5106671;28;20057;-89
2022/06/09 12:19:31;;;;;;;5.72;3.13;;;;;;;;;;5084919;28;20032;-89
2022/06/09 12:22:18;;;;;;;5.55;3.70;;;;;;;;;;5089078;28;20086;-86
2022/06/09 12:25:01;;;;;;;4.85;3.58;;;;;;;;;;5099399;28;20109;-86
2022/06/09 12:27:36;;;;;;;10.65;3.78;;;;;;;;;;5094649;28;20032;-88
2022/06/09 12:30:02;;;;;;;5.13;3.10;;;;;;;;;;5089628;28;20038;-86
2022/06/09 12:32:48;;;;;;;5.40;2.80;;;;;;;;;;5111282;28;20383;-87
2022/06/09 12:35:23;;;;;;;2.90;2.60;;;;;;;;;;5110633;28;20035;-88
2022/06/09 12:37:58;;;;;;;4.97;3.15;;;;;;;;;;5090472;28;20039;-87
2022/06/09 12:40:38;;;;;;;6.57;3.72;;;;;;;;;;5082986;28;20019;-88
2022/06/09 12:43:42;;;;;;;10.10;5.13;;;;;;;;;;5095291;28;20028;-85
2022/06/09 12:46:25;;;;;;;5.82;3.92;;;;;;;;;;4986419;28;20030;-87
2022/06/09 12:48:53;;;;;;;4.30;2.90;;;;;;;;;;5091472;28;20035;-87
2022/06/09 12:51:39;;;;;;;3.55;2.78;;;;;;;;;;5092045;28;20024;-88
2022/06/09 12:54:38;;;;;;;4.40;2.92;;;;;;;;;;5102197;28;20040;-90
2022/06/09 12:57:17;;;;;;;4.15;3.13;;;;;;;;;;5095781;28;20436;-88
2022/06/09 12:59:43;;;;;;;;;;;;;;;;;;5087345;28;20392;-89
2022/06/09 13:02:27;;;;;;;2.65;2.20;;;;;;;;;;5098938;28;19912;-85
2022/06/09 13:05:01;;;;;;;3.33;2.60;;;;;;;;;;5114985;28;20028;-86
2022/06/09 13:07:33;;;;;;;3.88;2.55;;;;;;;;;;5103157;28;20046;-86
2022/06/09 13:10:21;;;;;;;6.97;2.70;;;;;;;;;;5080828;28;20035;-87
2022/06/09 13:12:52;;;;;;;3.53;2.15;;;;;;;;;;5094841;28;20055;-88
2022/06/09 13:15:38;;;;;;;2.53;1.98;;;;;;;;;;5080920;28;20027;-86
2022/06/09 13:18:11;;;;;;;3.38;2.40;;;;;;;;;;5084478;28;20031;-87
2022/06/09 13:20:44;;;;;;;4.30;2.50;;;;;;;;;;5093304;28;20441;-84
2022/06/09 13:23:12;;;;;;;2.67;2.20;;;;;;;;;;5090283;27;20027;-84
2022/06/09 13:25:38;;;;;;;2.85;2.35;;;;;;;;;;5082768;28;20387;-85
2022/06/09 13:28:05;;;;;;;4.47;2.35;;;;;;;;;;5097466;28;20036;-86
2022/06/09 13:30:48;;;;;;;3.47;2.42;;;;;;;;;;5082349;28;20480;-86
2022/06/09 13:33:31;;;;;;;3.03;2.30;;;;;;;;;;5092870;28;20030;-87
2022/06/09 13:36:19;;;;;;;3.10;2.40;;;;;;;;;;5090515;28;20463;-87
2022/06/09 13:38:45;;;;;;;2.75;2.17;;;;;;;;;;5109315;28;20028;-88
2022/06/09 13:41:27;;;;;;;3.75;2.55;;;;;;;;;;5110188;28;20023;-86
2022/06/09 13:43:57;;;;;;;3.03;2.38;;;;;;;;;;5090381;28;20032;-89
2022/06/09 13:46:26;;;;;;;3.08;2.33;;;;;;;;;;5092871;28;20023;-88
2022/06/09 13:49:01;;;;;;;5.28;2.70;;;;;;;;;;5101562;28;20027;-87
2022/06/09 13:51:27;;;;;;;2.97;2.42;;;;;;;;;;5103176;28;20028;-87
2022/06/09 13:54:17;;;;;;;4.90;2.70;;;;;;;;;;5083249;28;20476;-86
2022/06/09 13:56:44;;;;;;;3.15;2.50;;;;;;;;;;5084635;28;20021;-86
2022/06/09 13:59:10;;;;;;;3.20;2.40;;;;;;;;;;5105889;28;20031;-86
2022/06/09 14:01:35;;;;;;;2.88;2.30;;;;;;;;;;5104516;28;20039;-88
2022/06/09 14:04:18;;;;;;;3.17;2.20;;;;;;;;;;5099784;28;20031;-85
2022/06/09 14:06:43;;;;;;;3.38;2.15;;;;;;;;;;5109142;28;20418;-85
2022/06/09 14:09:13;;;;;;;2.92;1.90;;;;;;;;;;5111881;28;20035;-87
2022/06/09 14:11:40;;;;;;;2.42;2.00;;;;;;;;;;5116493;28;20035;-88
2022/06/09 14:14:06;;;;;;;3.88;1.88;;;;;;;;;;5101168;28;20024;-85
2022/06/09 14:16:37;;;;;;;2.95;1.80;;;;;;;;;;5103891;28;20034;-84
2022/06/09 14:19:05;;;;;;;2.13;1.88;;;;;;;;;;5104240;28;20460;-85
2022/06/09 14:21:31;;;;;;;2.80;1.85;;;;;;;;;;5101733;28;20024;-83
2022/06/09 14:24:03;;;;;;;2.20;2.00;;;;;;;;;;5078318;28;20036;-85
2022/06/09 14:26:33;;;;;;;2.22;2.00;;;;;;;;;;5084220;28;20055;-86
2022/06/09 14:28:59;;;;;;;2.17;1.90;;;;;;;;;;5102062;28;20371;-87
2022/06/09 14:31:25;;;;;;;3.85;2.15;;;;;;;;;;5116184;27;20020;-90
2022/06/09 14:33:51;;;;;;;2.97;2.17;;;;;;;;;;5105830;28;20091;-85
2022/06/09 14:36:19;;;;;;;4.80;2.83;;;;;;;;;;5111698;28;20051;-88
2022/06/09 14:38:45;;;;;;;3.88;2.83;;;;;;;;;;5109622;28;20032;-87
2022/06/09 14:41:13;;;;;;;3.97;2.95;;;;;;;;;;5115401;28;20035;-88
2022/06/09 14:43:39;;;;;;;9.85;2.38;;;;;;;;;;5106486;28;20024;-86
2022/06/09 14:46:04;;;;;;;3.50;2.22;;;;;;;;;;5100340;28;20549;-88
2022/06/09 14:48:30;;;;;;;10.82;2.88;;;;;;;;;;5104090;28;20062;-86
2022/06/09 14:50:56;;;;;;;7.82;2.10;;;;;;;;;;5104907;28;20037;-90
2022/06/09 14:53:22;;;;;;;6.97;2.40;;;;;;;;;;5093437;28;20039;-85
2022/06/09 14:55:48;;;;;;;19.83;3.80;;;;;;;;;;5102025;28;20027;-86
2022/06/09 14:58:17;;;;;;;5.20;2.03;;;;;;;;;;5102758;28;20433;-90
2022/06/09 15:00:43;;;;;;;2.55;2.10;;;;;;;;;;5105637;28;20491;-86
2022/06/09 15:03:09;;;;;;;5.13;2.25;;;;;;;;;;5107797;28;20026;-86
2022/06/09 15:05:35;;;;;;;2.10;1.75;;;;;;;;;;5093660;28;20035;-88
2022/06/09 15:08:01;;;;;;;3.33;1.95;;;;;;;;;;5115227;28;20805;-89
2022/06/09 15:10:31;;;;;;;2.83;1.95;;;;;;;;;;5108012;28;20049;-88
2022/06/09 15:12:57;;;;;;;4.50;2.22;;;;;;;;;;5104640;28;20551;-87
2022/06/09 15:15:23;;;;;;;6.32;2.72;;;;;;;;;;5103161;28;20118;-87
2022/06/09 15:17:48;;;;;;;12.70;2.85;;;;;;;;;;5112755;28;20164;-89
2022/06/09 15:20:30;;;;;;;9.98;2.83;;;;;;;;;;5100069;28;20110;-90
2022/06/09 15:22:56;;;;;;;6.30;2.25;;;;;;;;;;5096941;28;20557;-90
2022/06/09 15:25:22;;;;;;;8.57;2.53;;;;;;;;;;5108155;28;20071;-90
2022/06/09 15:27:49;;;;;;;10.05;2.60;;;;;;;;;;5103170;28;20042;-85
2022/06/09 15:30:23;;;;;;;10.00;3.08;;;;;;;;;;5098872;28;20104;-84
2022/06/09 15:32:52;;;;;;;2.45;1.83;;;;;;;;;;5093582;28;20035;-84